createdAt,value
2022-12-15T00:02:18.395Z,19.97
2022-12-15T00:05:03.726Z,23.33
2022-12-15T00:07:49.308Z,23.63
2022-12-15T00:10:34.858Z,21.80
2022-12-15T00:13:20.466Z,23.77
2022-12-15T00:16:07.402Z,21.87
2022-12-15T00:18:53.192Z,25.33
2022-12-15T00:21:38.594Z,23.47
2022-12-15T00:24:24.348Z,25.27
2022-12-15T00:27:09.779Z,24.90
2022-12-15T00:29:55.175Z,20.83
2022-12-15T00:32:42.129Z,23.27
2022-12-15T00:35:27.775Z,22.93
2022-12-15T00:38:13.094Z,22.73
2022-12-15T00:40:40.942Z,22.60
2022-12-15T00:43:11.865Z,20.93
2022-12-15T00:45:57.836Z,19.60
2022-12-15T00:48:27.021Z,21.33
2022-12-15T00:50:53.930Z,17.70
2022-12-15T00:53:40.460Z,20.90
2022-12-15T00:56:26.931Z,20.47
2022-12-15T00:59:13.473Z,18.37
2022-12-15T01:01:59.077Z,16.77
2022-12-15T01:04:46.196Z,17.97
2022-12-15T01:07:31.766Z,18.83
2022-12-15T01:10:17.101Z,17.83
2022-12-15T01:13:02.796Z,19.37
2022-12-15T01:15:48.282Z,19.37
2022-12-15T01:18:33.815Z,18.50
2022-12-15T01:21:05.672Z,17.10
2022-12-15T01:23:34.556Z,18.47
2022-12-15T01:26:02.871Z,19.63
2022-12-15T01:28:30.754Z,20.60
2022-12-15T01:30:58.740Z,21.10
2022-12-15T01:33:26.629Z,19.23
2022-12-15T01:35:59.421Z,17.27
2022-12-15T01:38:30.166Z,18.27
2022-12-15T01:41:01.879Z,16.20
2022-12-15T01:43:33.178Z,17.10
2022-12-15T01:46:06.766Z,19.33
2022-12-15T01:48:41.280Z,18.03
2022-12-15T01:51:17.094Z,18.80
2022-12-15T01:53:52.241Z,17.30
2022-12-15T01:56:21.375Z,17.87
2022-12-15T01:58:52.027Z,16.87
2022-12-15T02:01:19.948Z,21.27
2022-12-15T02:03:48.964Z,15.57
2022-12-15T02:06:18.003Z,18.83
2022-12-15T02:08:48.946Z,15.83
2022-12-15T02:11:38.361Z,18.20
2022-12-15T02:14:07.631Z,17.13
2022-12-15T02:16:49.506Z,18.00
2022-12-15T02:19:41.407Z,17.70
2022-12-15T02:22:22.452Z,18.77
2022-12-15T02:25:07.812Z,18.27
2022-12-15T02:28:00.455Z,16.60
2022-12-15T02:31:09.420Z,18.30
2022-12-15T02:33:41.710Z,19.63
2022-12-15T02:36:15.986Z,18.47
2022-12-15T02:38:45.002Z,17.40
2022-12-15T02:41:34.832Z,18.40
2022-12-15T02:44:06.173Z,21.30
2022-12-15T02:46:50.581Z,17.80
2022-12-15T02:53:23.739Z,19.70
2022-12-15T02:55:58.843Z,21.70
2022-12-15T02:58:33.068Z,16.53
2022-12-15T03:01:04.758Z,16.50
2022-12-15T03:03:36.803Z,18.93
2022-12-15T03:06:05.141Z,18.67
2022-12-15T03:08:32.916Z,19.83
2022-12-15T03:11:00.931Z,18.60
2022-12-15T03:13:29.048Z,21.03
2022-12-15T03:15:58.490Z,22.80
2022-12-15T03:18:26.307Z,20.17
2022-12-15T03:20:55.443Z,18.27
2022-12-15T03:23:23.280Z,18.77
2022-12-15T03:25:51.405Z,22.27
2022-12-15T03:28:19.316Z,23.17
2022-12-15T03:30:50.292Z,20.00
2022-12-15T03:33:19.029Z,19.20
2022-12-15T03:35:46.846Z,19.60
2022-12-15T03:38:15.941Z,20.07
2022-12-15T03:40:43.835Z,22.77
2022-12-15T03:43:11.668Z,19.57
2022-12-15T03:45:39.525Z,18.90
2022-12-15T03:48:07.552Z,18.17
2022-12-15T03:50:35.553Z,22.77
2022-12-15T03:53:05.370Z,24.10
2022-12-15T03:55:35.141Z,24.27
2022-12-15T03:58:03.370Z,20.20
2022-12-15T04:00:31.245Z,21.80
2022-12-15T04:02:59.299Z,22.00
2022-12-15T04:05:29.271Z,20.57
2022-12-15T04:07:58.494Z,22.33
2022-12-15T04:10:33.645Z,20.87
2022-12-15T04:13:05.367Z,19.50
2022-12-15T04:15:33.733Z,20.90
2022-12-15T04:18:02.889Z,21.73
2022-12-15T04:20:31.196Z,20.83
2022-12-15T04:22:59.181Z,20.23
2022-12-15T04:25:45.856Z,20.97
2022-12-15T04:28:33.120Z,21.53
2022-12-15T04:31:21.593Z,21.00
2022-12-15T04:34:11.017Z,20.57
2022-12-15T04:36:58.347Z,20.53
2022-12-15T04:39:43.989Z,22.00
2022-12-15T04:42:29.605Z,23.07
2022-12-15T04:45:21.245Z,27.90
2022-12-15T04:48:07.187Z,23.03
2022-12-15T04:50:52.775Z,23.63
2022-12-15T04:53:39.126Z,25.53
2022-12-15T04:56:28.764Z,39.60
2022-12-15T04:59:14.167Z,39.83
2022-12-15T05:02:01.668Z,31.50
2022-12-15T05:04:47.621Z,23.97
2022-12-15T05:07:33.345Z,26.30
2022-12-15T05:10:18.835Z,26.03
2022-12-15T05:13:04.324Z,26.13
2022-12-15T05:15:51.829Z,29.30
2022-12-15T05:18:38.862Z,30.90
2022-12-15T05:21:25.534Z,26.27
2022-12-15T05:24:11.651Z,26.33
2022-12-15T05:26:57.026Z,29.57
2022-12-15T05:29:42.513Z,27.13
2022-12-15T05:32:10.327Z,30.43
2022-12-15T05:34:39.436Z,30.33
2022-12-15T05:37:07.589Z,30.17
2022-12-15T05:39:35.565Z,28.57
2022-12-15T05:42:03.727Z,24.57
2022-12-15T05:44:31.525Z,26.60
2022-12-15T05:46:59.349Z,29.27
2022-12-15T05:49:27.193Z,29.57
2022-12-15T05:51:57.177Z,29.20
2022-12-15T05:54:25.031Z,30.30
2022-12-15T05:56:52.843Z,28.13
2022-12-15T05:59:21.029Z,27.67
2022-12-15T06:01:49.028Z,29.53
2022-12-15T06:04:16.979Z,30.00
2022-12-15T06:06:44.840Z,32.67
2022-12-15T06:09:14.032Z,30.57
2022-12-15T06:11:41.965Z,33.10
2022-12-15T06:14:10.428Z,31.70
2022-12-15T06:16:44.265Z,25.10
2022-12-15T06:19:18.455Z,28.67
2022-12-15T06:21:46.205Z,27.70
2022-12-15T06:24:15.346Z,28.50
2022-12-15T06:26:43.188Z,28.80
2022-12-15T06:29:13.145Z,30.20
2022-12-15T06:31:42.637Z,29.60
2022-12-15T06:34:13.960Z,30.83
2022-12-15T06:36:42.073Z,28.77
2022-12-15T06:39:13.109Z,27.77
2022-12-15T06:41:42.942Z,27.50
2022-12-15T06:44:14.871Z,29.97
2022-12-15T06:46:43.116Z,28.53
2022-12-15T06:49:11.192Z,33.40
2022-12-15T06:51:39.130Z,35.13
2022-12-15T06:54:06.972Z,33.13
2022-12-15T06:56:36.926Z,32.30
2022-12-15T06:59:07.458Z,34.23
2022-12-15T07:01:35.882Z,31.70
2022-12-15T07:04:05.434Z,34.57
2022-12-15T07:06:36.465Z,35.77
2022-12-15T07:09:07.067Z,34.83
2022-12-15T07:11:35.102Z,34.27
2022-12-15T07:14:03.104Z,32.27
2022-12-15T07:16:32.415Z,29.77
2022-12-15T07:19:00.226Z,31.43
2022-12-15T07:21:28.022Z,33.73
2022-12-15T07:23:57.238Z,31.70
2022-12-15T07:26:26.667Z,35.50
2022-12-15T07:28:54.841Z,31.60
2022-12-15T07:31:23.576Z,30.40
2022-12-15T07:33:54.354Z,33.50
2022-12-15T07:36:22.197Z,34.70
2022-12-15T07:38:51.222Z,33.97
2022-12-15T07:41:20.681Z,29.60
2022-12-15T07:43:48.643Z,30.00
2022-12-15T07:46:17.068Z,25.30
2022-12-15T07:48:50.383Z,35.80
2022-12-15T07:51:21.233Z,30.97
2022-12-15T07:53:50.728Z,37.57
2022-12-15T07:56:19.493Z,34.60
2022-12-15T07:58:47.968Z,31.50
2022-12-15T08:01:16.890Z,31.23
2022-12-15T08:03:45.676Z,36.30
2022-12-15T08:06:15.252Z,37.63
2022-12-15T08:08:50.286Z,35.03
2022-12-15T08:11:20.626Z,33.00
2022-12-15T08:14:06.896Z,33.87
2022-12-15T08:16:36.809Z,32.87
2022-12-15T08:19:05.567Z,35.27
2022-12-15T08:21:33.500Z,36.07
2022-12-15T08:24:02.972Z,45.40
2022-12-15T08:26:31.579Z,45.17
2022-12-15T08:29:31.815Z,46.43
2022-12-15T08:31:51.751Z,34.43
2022-12-15T08:34:19.611Z,40.90
2022-12-15T08:36:47.451Z,43.07
2022-12-15T08:39:16.862Z,41.53
2022-12-15T08:41:44.773Z,33.73
2022-12-15T08:44:12.637Z,35.70
2022-12-15T08:46:40.598Z,39.73
2022-12-15T08:49:08.942Z,34.63
2022-12-15T08:51:37.044Z,32.93
2022-12-15T08:54:05.062Z,34.80
2022-12-15T08:56:34.246Z,34.10
2022-12-15T08:59:03.272Z,36.73
2022-12-15T09:01:33.147Z,37.40
2022-12-15T09:04:01.316Z,33.60
2022-12-15T09:06:31.884Z,32.10
2022-12-15T09:09:01.519Z,35.90
2022-12-15T09:11:30.331Z,38.53
2022-12-15T09:13:59.605Z,35.13
2022-12-15T09:16:28.087Z,35.43
2022-12-15T09:18:57.758Z,46.13
2022-12-15T09:21:28.587Z,33.53
2022-12-15T09:24:00.332Z,36.50
2022-12-15T09:26:29.446Z,49.30
2022-12-15T09:28:57.632Z,38.83
2022-12-15T09:31:28.872Z,32.63
2022-12-15T09:33:58.664Z,36.83
2022-12-15T09:36:27.677Z,37.73
2022-12-15T09:38:55.673Z,36.30
2022-12-15T09:41:27.161Z,32.33
2022-12-15T09:43:59.623Z,35.00
2022-12-15T09:46:37.468Z,39.30
2022-12-15T09:49:14.579Z,34.13
2022-12-15T09:51:49.020Z,39.60
2022-12-15T09:54:16.790Z,38.00
2022-12-15T09:56:49.837Z,38.07
2022-12-15T09:59:29.077Z,39.70
2022-12-15T10:02:12.417Z,41.80
2022-12-15T10:04:50.873Z,33.63
2022-12-15T10:07:26.990Z,35.47
2022-12-15T10:09:54.825Z,33.80
2022-12-15T10:12:26.269Z,36.27
2022-12-15T10:15:05.453Z,30.60
2022-12-15T10:17:44.444Z,33.13
2022-12-15T10:20:20.247Z,36.67
2022-12-15T10:22:50.514Z,30.07
2022-12-15T10:25:27.554Z,26.83
2022-12-15T10:28:11.910Z,33.17
2022-12-15T10:30:46.861Z,34.63
2022-12-15T10:33:20.208Z,35.27
2022-12-15T10:35:49.105Z,36.20
2022-12-15T10:38:35.215Z,34.60
2022-12-15T10:41:05.335Z,38.90
2022-12-15T10:43:36.480Z,33.67
2022-12-15T10:46:15.887Z,39.50
2022-12-15T10:48:48.718Z,33.50
2022-12-15T10:51:20.073Z,30.93
2022-12-15T10:53:50.775Z,39.53
2022-12-15T10:56:32.304Z,41.93
2022-12-15T10:59:03.650Z,35.60
2022-12-15T11:01:33.952Z,33.50
2022-12-15T11:04:03.473Z,33.50
2022-12-15T11:06:33.807Z,40.00
2022-12-15T11:09:10.493Z,37.17
2022-12-15T11:12:05.684Z,30.33
2022-12-15T11:14:44.707Z,36.60
2022-12-15T11:17:17.407Z,40.23
2022-12-15T11:19:58.247Z,36.20
2022-12-15T11:22:36.393Z,37.60
2022-12-15T11:25:10.843Z,34.30
2022-12-15T11:27:43.279Z,33.40
2022-12-15T11:30:14.553Z,35.37
2022-12-15T11:32:45.264Z,34.90
2022-12-15T11:35:15.849Z,33.77
2022-12-15T11:37:45.214Z,33.57
2022-12-15T11:40:27.232Z,41.60
2022-12-15T11:43:06.424Z,35.60
2022-12-15T11:45:42.728Z,34.37
2022-12-15T11:48:14.603Z,37.97
2022-12-15T11:50:52.640Z,37.77
2022-12-15T11:53:35.791Z,45.03
2022-12-15T11:56:16.594Z,45.07
2022-12-15T11:58:58.956Z,47.00
2022-12-15T12:01:51.648Z,43.50
2022-12-15T12:04:25.301Z,41.17
2022-12-15T12:07:04.395Z,46.27
2022-12-15T12:09:36.132Z,48.27
2022-12-15T12:12:17.135Z,44.47
2022-12-15T12:14:56.398Z,45.07
2022-12-15T12:17:36.087Z,37.00
2022-12-15T12:20:15.868Z,41.30
2022-12-15T12:22:54.440Z,50.03
2022-12-15T12:25:25.649Z,41.73
2022-12-15T12:27:56.969Z,44.77
2022-12-15T12:30:27.947Z,43.67
2022-12-15T12:33:04.776Z,47.13
2022-12-15T12:35:39.694Z,44.00
2022-12-15T12:38:11.528Z,45.20
2022-12-15T12:40:51.553Z,46.77
2022-12-15T12:43:31.803Z,51.20
2022-12-15T12:46:04.955Z,49.43
2022-12-15T12:48:37.563Z,46.27
2022-12-15T12:51:20.275Z,49.37
2022-12-15T12:53:50.310Z,57.43
2022-12-15T12:56:40.825Z,52.03
2022-12-15T12:59:38.400Z,46.17
2022-12-15T13:02:43.489Z,50.40
2022-12-15T13:05:34.686Z,48.77
2022-12-15T13:08:37.499Z,46.33
2022-12-15T13:11:40.932Z,45.47
2022-12-15T13:17:27.641Z,47.73
2022-12-15T13:20:17.011Z,40.37
2022-12-15T13:22:44.832Z,48.20
2022-12-15T13:25:37.135Z,43.57
2022-12-15T13:28:20.274Z,45.17
2022-12-15T13:31:28.457Z,47.57
2022-12-15T13:34:16.481Z,51.77
2022-12-15T13:36:54.752Z,42.37
2022-12-15T13:39:58.091Z,53.53
2022-12-15T13:42:40.236Z,55.43
2022-12-15T13:45:39.637Z,48.03
2022-12-15T13:48:38.388Z,49.47
2022-12-15T13:51:18.773Z,47.33
2022-12-15T13:53:51.806Z,48.40
2022-12-15T13:56:45.703Z,51.13
2022-12-15T13:59:31.922Z,51.87
2022-12-15T14:02:00.121Z,50.63
2022-12-15T14:04:29.392Z,43.87
2022-12-15T14:06:59.045Z,47.17
2022-12-15T14:09:30.438Z,49.27
2022-12-15T14:11:59.144Z,47.07
2022-12-15T14:14:30.770Z,45.97
2022-12-15T14:17:01.352Z,47.23
2022-12-15T14:19:40.190Z,44.57
2022-12-15T14:25:18.929Z,43.17
2022-12-15T14:27:50.672Z,43.80
2022-12-15T14:30:24.539Z,49.50
2022-12-15T14:32:56.821Z,54.23
2022-12-15T14:35:31.049Z,50.23
2022-12-15T14:38:01.919Z,49.70
2022-12-15T14:40:30.792Z,48.30
2022-12-15T14:42:58.638Z,44.27
2022-12-15T14:45:29.461Z,43.03
2022-12-15T14:48:30.971Z,40.77
2022-12-15T14:50:51.259Z,44.17
2022-12-15T14:53:20.968Z,47.93
2022-12-15T14:55:48.777Z,40.23
2022-12-15T14:58:33.402Z,41.40
2022-12-15T15:01:02.789Z,42.60
2022-12-15T15:03:05.231Z,44.80
2022-12-15T15:03:14.223Z,45.33
2022-12-15T15:03:38.077Z,42.30
2022-12-15T15:06:18.672Z,41.63
2022-12-15T15:08:48.720Z,38.50
2022-12-15T15:11:29.191Z,42.07
2022-12-15T15:13:58.993Z,45.20
2022-12-15T15:16:27.407Z,52.77
2022-12-15T15:18:56.884Z,46.90
2022-12-15T15:21:29.635Z,43.17
2022-12-15T15:24:02.353Z,45.27
2022-12-15T15:26:31.550Z,45.47
2022-12-15T15:28:59.400Z,44.63
2022-12-15T15:31:40.851Z,53.20
2022-12-15T15:34:09.875Z,48.73
2022-12-15T15:36:40.322Z,48.57
2022-12-15T15:39:15.086Z,47.13
2022-12-15T15:41:43.057Z,50.87
2022-12-15T15:44:14.593Z,49.17
2022-12-15T15:46:47.340Z,45.23
2022-12-15T15:49:18.642Z,45.73
2022-12-15T15:51:48.111Z,51.27
2022-12-15T15:54:18.946Z,45.07
2022-12-15T15:56:46.713Z,42.03
2022-12-15T15:59:16.557Z,37.87
2022-12-15T16:01:45.042Z,42.93
2022-12-15T16:04:13.152Z,46.23
2022-12-15T16:06:46.915Z,45.57
2022-12-15T16:09:17.683Z,44.90
2022-12-15T16:11:46.982Z,52.37
2022-12-15T16:14:16.759Z,48.30
2022-12-15T16:16:45.175Z,55.53
2022-12-15T16:19:13.291Z,35.13
2022-12-15T16:21:42.791Z,47.03
2022-12-15T16:24:17.567Z,48.40
2022-12-15T16:26:49.696Z,42.77
2022-12-15T16:29:19.829Z,44.43
2022-12-15T16:31:47.895Z,44.57
2022-12-15T16:34:17.471Z,50.47
2022-12-15T16:36:45.855Z,45.10
2022-12-15T16:39:28.862Z,50.50
2022-12-15T16:41:57.559Z,38.37
2022-12-15T16:44:26.622Z,42.10
2022-12-15T16:46:54.465Z,46.77
2022-12-15T16:49:22.337Z,46.70
2022-12-15T16:51:53.225Z,53.07
2022-12-15T16:54:25.126Z,49.83
2022-12-15T16:56:53.960Z,56.20
2022-12-15T16:59:33.220Z,49.23
2022-12-15T17:02:02.130Z,44.80
2022-12-15T17:04:30.167Z,46.60
2022-12-15T17:06:57.940Z,50.03
2022-12-15T17:09:27.284Z,51.67
2022-12-15T17:11:55.135Z,53.87
2022-12-15T17:14:22.886Z,52.77
2022-12-15T17:16:50.636Z,54.37
2022-12-15T17:19:21.288Z,51.70
2022-12-15T17:21:51.755Z,51.30
2022-12-15T17:24:22.153Z,49.33
2022-12-15T17:26:51.464Z,44.90
2022-12-15T17:29:41.284Z,57.77
2022-12-15T17:32:13.401Z,50.00
2022-12-15T17:34:41.156Z,53.10
2022-12-15T17:37:14.133Z,50.43
2022-12-15T17:39:44.645Z,52.80
2022-12-15T17:42:17.871Z,43.80
2022-12-15T17:44:47.525Z,48.13
2022-12-15T17:47:16.699Z,47.03
2022-12-15T17:49:46.482Z,52.93
2022-12-15T17:52:30.302Z,54.40
2022-12-15T17:54:58.747Z,59.87
2022-12-15T17:57:29.949Z,50.47
2022-12-15T17:59:57.735Z,50.00
2022-12-15T18:02:25.767Z,43.87
2022-12-15T18:04:55.176Z,52.17
2022-12-15T18:07:24.660Z,43.43
2022-12-15T18:09:53.277Z,53.53
2022-12-15T18:12:23.196Z,52.30
2022-12-15T18:14:53.049Z,51.20
2022-12-15T18:17:21.255Z,52.27
2022-12-15T18:19:49.356Z,50.10
2022-12-15T18:22:21.958Z,58.20
2022-12-15T18:24:50.648Z,51.90
2022-12-15T18:27:22.458Z,49.70
2022-12-15T18:29:51.873Z,53.97
2022-12-15T18:32:21.414Z,52.83
2022-12-15T18:34:49.360Z,53.20
2022-12-15T18:37:18.504Z,51.03
2022-12-15T18:39:47.149Z,52.77
2022-12-15T18:42:16.479Z,58.87
2022-12-15T18:44:47.234Z,53.20
2022-12-15T18:47:18.626Z,52.57
2022-12-15T18:49:46.854Z,50.23
2022-12-15T18:52:18.338Z,47.37
2022-12-15T18:54:47.184Z,54.03
2022-12-15T18:57:30.965Z,42.13
2022-12-15T19:00:00.784Z,49.57
2022-12-15T19:02:29.987Z,52.63
2022-12-15T19:04:57.949Z,44.03
2022-12-15T19:07:25.996Z,53.53
2022-12-15T19:09:54.205Z,51.77
2022-12-15T19:12:22.177Z,56.07
2022-12-15T19:14:52.236Z,55.43
2022-12-15T19:17:50.930Z,57.47
2022-12-15T19:20:53.220Z,52.33
2022-12-15T19:23:22.020Z,52.83
2022-12-15T19:25:50.892Z,66.63
2022-12-15T19:28:20.258Z,46.03
2022-12-15T19:30:48.743Z,49.43
2022-12-15T19:33:17.824Z,56.93
2022-12-15T19:35:51.361Z,57.43
2022-12-15T19:38:24.111Z,68.90
2022-12-15T19:40:54.421Z,55.57
2022-12-15T19:43:23.142Z,60.23
2022-12-15T19:45:51.891Z,52.00
2022-12-15T19:48:23.680Z,48.27
2022-12-15T19:50:54.584Z,64.70
2022-12-15T19:53:26.057Z,64.17
2022-12-15T19:55:55.644Z,55.43
2022-12-15T19:58:29.709Z,44.70
2022-12-15T20:00:59.199Z,50.33
2022-12-15T20:03:27.837Z,44.73
2022-12-15T20:05:58.314Z,51.93
2022-12-15T20:08:28.715Z,50.33
2022-12-15T20:10:57.536Z,44.73
2022-12-15T20:13:26.336Z,48.20
2022-12-15T20:15:54.614Z,52.90
2022-12-15T20:18:22.613Z,52.50
2022-12-15T20:20:50.959Z,52.87
2022-12-15T20:23:23.568Z,58.00
2022-12-15T20:25:51.364Z,51.27
2022-12-15T20:28:22.860Z,44.30
2022-12-15T20:30:51.270Z,48.33
2022-12-15T20:33:19.584Z,55.27
2022-12-15T20:35:49.680Z,46.83
2022-12-15T20:38:27.292Z,53.87
2022-12-15T20:40:55.893Z,49.80
2022-12-15T20:43:24.422Z,46.90
2022-12-15T20:46:00.409Z,55.17
2022-12-15T20:48:28.449Z,48.07
2022-12-15T20:50:56.371Z,51.93
2022-12-15T20:53:27.105Z,48.27
2022-12-15T20:55:56.937Z,51.83
2022-12-15T20:58:29.742Z,45.37
2022-12-15T21:01:00.688Z,48.03
2022-12-15T21:03:31.365Z,47.57
2022-12-15T21:06:00.467Z,55.03
2022-12-15T21:08:31.294Z,49.33
2022-12-15T21:11:02.922Z,44.70
2022-12-15T21:13:35.327Z,48.37
2022-12-15T21:16:03.462Z,53.87
2022-12-15T21:21:22.692Z,49.30
2022-12-15T21:23:51.797Z,42.83
2022-12-15T21:26:21.292Z,47.13
2022-12-15T21:28:49.866Z,40.47
2022-12-15T21:31:19.335Z,36.67
2022-12-15T21:33:47.426Z,51.40
2022-12-15T21:36:16.866Z,44.63
2022-12-15T21:38:47.540Z,49.97
2022-12-15T21:41:19.364Z,49.87
2022-12-15T21:43:47.581Z,51.97
2022-12-15T21:46:17.991Z,56.77
2022-12-15T21:49:04.103Z,46.77
2022-12-15T21:51:35.816Z,52.00
2022-12-15T21:54:04.117Z,46.43
2022-12-15T21:56:33.282Z,48.00
2022-12-15T21:59:01.080Z,52.67
2022-12-15T22:01:30.668Z,54.13
2022-12-15T22:04:02.077Z,47.03
2022-12-15T22:06:31.057Z,45.60
2022-12-15T22:08:59.490Z,49.90
2022-12-15T22:11:29.690Z,49.80
2022-12-15T22:14:01.816Z,49.37
2022-12-15T22:16:29.810Z,44.20
2022-12-15T22:18:59.272Z,43.53
2022-12-15T22:21:27.246Z,47.10
2022-12-15T22:23:55.116Z,48.33
2022-12-15T22:26:25.089Z,51.17
2022-12-15T22:28:52.993Z,45.87
2022-12-15T22:31:24.219Z,48.40
2022-12-15T22:33:52.397Z,45.10
2022-12-15T22:36:20.181Z,46.17
2022-12-15T22:38:48.222Z,46.07
2022-12-15T22:41:20.389Z,50.57
2022-12-15T22:43:51.915Z,44.87
2022-12-15T22:46:22.147Z,47.17
2022-12-15T22:48:54.835Z,46.47
2022-12-15T22:51:23.071Z,51.37
2022-12-15T22:53:51.755Z,48.03
2022-12-15T22:56:25.916Z,49.07
2022-12-15T22:58:59.573Z,51.47
2022-12-15T23:01:28.275Z,47.87
2022-12-15T23:03:57.561Z,45.13
2022-12-15T23:06:27.062Z,52.80
2022-12-15T23:08:56.234Z,41.73
2022-12-15T23:11:39.657Z,49.37
2022-12-15T23:14:09.202Z,61.10
2022-12-15T23:16:37.117Z,49.50
2022-12-15T23:19:07.786Z,53.83
2022-12-15T23:21:37.110Z,48.80
2022-12-15T23:24:05.122Z,53.00
2022-12-15T23:26:32.910Z,51.03
2022-12-15T23:29:00.659Z,47.27
2022-12-15T23:31:28.943Z,55.90
2022-12-15T23:33:56.787Z,46.20
2022-12-15T23:36:25.951Z,47.83
2022-12-15T23:38:55.034Z,50.03
2022-12-15T23:41:22.825Z,62.33
2022-12-15T23:43:50.606Z,43.00
2022-12-15T23:46:19.022Z,50.73
2022-12-15T23:48:46.846Z,51.17
2022-12-15T23:51:17.042Z,48.03
2022-12-15T23:53:48.057Z,52.97
2022-12-15T23:56:18.333Z,54.27
2022-12-15T23:58:47.533Z,48.33
